Time;durP1;ratioP1;P1;durP2;ratioP2;P2;SDS_P1;SDS_P2;PMS_P1;PMS_P2;Temp;Humidity;BMP_temperature;BMP_pressure;BME280_temperature;BME280_humidity;BME280_pressure;Samples;Min_cycle;Max_cycle;Signal;HPM_P1;HPM_P2
2022/01/31 00:00:52;;;;;;;15.27;7.03;;;;;;;;;;5050120;28;20029;-65
2022/01/31 00:03:18;;;;;;;17.73;6.70;;;;;;;;;;5050101;28;20108;-66
2022/01/31 00:05:43;;;;;;;17.02;6.88;;;;;;;;;;5049966;28;20033;-67
2022/01/31 00:08:09;;;;;;;17.40;7.18;;;;;;;;;;5049888;28;20469;-66
2022/01/31 00:10:34;;;;;;;16.70;6.63;;;;;;;;;;5049801;28;20029;-66
2022/01/31 00:13:07;;;;;;;14.57;6.47;;;;;;;;;;5049665;28;20032;-66
2022/01/31 00:15:38;;;;;;;15.18;6.68;;;;;;;;;;5049893;28;20029;-66
2022/01/31 00:18:04;;;;;;;15.32;7.03;;;;;;;;;;5049711;28;20029;-66
2022/01/31 00:20:29;;;;;;;15.55;7.00;;;;;;;;;;5049957;28;20036;-65
2022/01/31 00:22:55;;;;;;;10.85;6.47;;;;;;;;;;5049658;28;20032;-66
2022/01/31 00:25:20;;;;;;;14.40;7.10;;;;;;;;;;5050122;28;20348;-66
2022/01/31 00:27:47;;;;;;;14.95;6.78;;;;;;;;;;5049531;28;20112;-66
2022/01/31 00:30:13;;;;;;;17.73;6.75;;;;;;;;;;5049395;28;20025;-66
2022/01/31 00:32:39;;;;;;;18.10;6.85;;;;;;;;;;5049712;28;20040;-66
2022/01/31 00:35:05;;;;;;;13.82;6.60;;;;;;;;;;5049590;28;20025;-66
2022/01/31 00:37:31;;;;;;;15.27;6.60;;;;;;;;;;5049515;28;20112;-66
2022/01/31 00:39:56;;;;;;;16.92;6.85;;;;;;;;;;5049564;28;20255;-66
2022/01/31 00:42:24;;;;;;;15.10;6.55;;;;;;;;;;5049690;28;20104;-66
2022/01/31 00:44:55;;;;;;;17.23;6.75;;;;;;;;;;5049397;28;20389;-66
2022/01/31 00:47:26;;;;;;;15.40;6.65;;;;;;;;;;5049237;28;20090;-66
2022/01/31 00:50:06;;;;;;;13.80;6.72;;;;;;;;;;5049576;28;20032;-66
2022/01/31 00:52:32;;;;;;;17.00;6.32;;;;;;;;;;5049523;28;20029;-66
2022/01/31 00:54:58;;;;;;;14.55;6.03;;;;;;;;;;5049577;28;20608;-66
2022/01/31 00:57:24;;;;;;;18.40;6.50;;;;;;;;;;5049486;28;20570;-67
2022/01/31 00:59:51;;;;;;;14.05;5.72;;;;;;;;;;5049568;28;20053;-66
2022/01/31 01:02:20;;;;;;;15.60;5.93;;;;;;;;;;5051441;28;20455;-66
2022/01/31 01:04:46;;;;;;;16.67;6.97;;;;;;;;;;5053295;28;20199;-66
2022/01/31 01:07:14;;;;;;;16.65;5.55;;;;;;;;;;5053174;28;20172;-67
2022/01/31 01:09:41;;;;;;;13.57;5.63;;;;;;;;;;5053281;28;20029;-67
2022/01/31 01:12:11;;;;;;;12.95;5.63;;;;;;;;;;5052942;28;20025;-67
2022/01/31 01:14:36;;;;;;;12.52;5.75;;;;;;;;;;5053004;28;20024;-66
2022/01/31 01:17:02;;;;;;;14.80;6.20;;;;;;;;;;5051504;28;20274;-66
2022/01/31 01:19:28;;;;;;;12.27;5.78;;;;;;;;;;5052966;28;20497;-67
2022/01/31 01:21:53;;;;;;;11.05;5.30;;;;;;;;;;5053219;28;20029;-66
2022/01/31 01:24:19;;;;;;;11.10;4.88;;;;;;;;;;5051410;28;20598;-66
2022/01/31 01:26:45;;;;;;;10.75;5.40;;;;;;;;;;5052554;28;20499;-66
2022/01/31 01:29:11;;;;;;;15.10;5.35;;;;;;;;;;5052469;28;20021;-66
2022/01/31 01:31:36;;;;;;;11.82;5.70;;;;;;;;;;5052655;28;20488;-65
2022/01/31 01:34:02;;;;;;;12.45;5.30;;;;;;;;;;5052893;28;20017;-66
2022/01/31 01:36:28;;;;;;;13.40;5.20;;;;;;;;;;5052598;28;20477;-65
2022/01/31 01:38:54;;;;;;;13.88;5.18;;;;;;;;;;5052328;28;20048;-66
2022/01/31 01:41:19;;;;;;;17.30;5.60;;;;;;;;;;5052456;28;20056;-66
2022/01/31 01:43:45;;;;;;;13.63;5.32;;;;;;;;;;5052741;28;20017;-66
2022/01/31 01:46:11;;;;;;;12.00;5.25;;;;;;;;;;5051960;28;20029;-66
2022/01/31 01:48:37;;;;;;;13.10;5.50;;;;;;;;;;5052064;28;20449;-66
2022/01/31 01:51:03;;;;;;;12.57;5.18;;;;;;;;;;5052287;28;20083;-66
2022/01/31 01:53:29;;;;;;;13.88;5.40;;;;;;;;;;5052522;28;20461;-66
2022/01/31 01:55:54;;;;;;;11.63;5.05;;;;;;;;;;5052442;28;20036;-66
2022/01/31 01:58:22;;;;;;;11.73;5.38;;;;;;;;;;5052110;28;20029;-66
2022/01/31 02:00:50;;;;;;;16.15;5.10;;;;;;;;;;5051912;28;20032;-66
2022/01/31 02:03:20;;;;;;;12.77;5.22;;;;;;;;;;5051886;28;20029;-66
2022/01/31 02:05:46;;;;;;;13.10;4.97;;;;;;;;;;5052127;28;20063;-65
2022/01/31 02:08:17;;;;;;;11.65;4.80;;;;;;;;;;5051828;28;20025;-66
2022/01/31 02:10:43;;;;;;;14.07;5.03;;;;;;;;;;5051926;28;20480;-66
2022/01/31 02:13:10;;;;;;;14.00;5.03;;;;;;;;;;5051180;28;20029;-66
2022/01/31 02:15:36;;;;;;;9.32;5.15;;;;;;;;;;5051785;28;20033;-67
2022/01/31 02:18:03;;;;;;;10.18;4.40;;;;;;;;;;5051615;28;20028;-67
2022/01/31 02:20:29;;;;;;;9.48;4.65;;;;;;;;;;5051852;28;20033;-66
2022/01/31 02:22:54;;;;;;;9.82;4.90;;;;;;;;;;5051621;28;20029;-66
2022/01/31 02:25:20;;;;;;;11.32;4.80;;;;;;;;;;5051664;28;20028;-67
2022/01/31 02:27:46;;;;;;;11.48;4.70;;;;;;;;;;5051456;28;20115;-66
2022/01/31 02:30:14;;;;;;;10.52;4.70;;;;;;;;;;5051619;28;20384;-67
2022/01/31 02:32:40;;;;;;;11.55;4.70;;;;;;;;;;5051639;28;20036;-66
2022/01/31 02:35:06;;;;;;;12.55;4.85;;;;;;;;;;5051444;28;20025;-67
2022/01/31 02:37:32;;;;;;;10.93;4.70;;;;;;;;;;5051614;28;20028;-66
2022/01/31 02:39:57;;;;;;;11.73;4.93;;;;;;;;;;5051142;28;20083;-65
2022/01/31 02:42:23;;;;;;;11.30;4.60;;;;;;;;;;5051329;28;20025;-66
2022/01/31 02:44:49;;;;;;;9.40;4.28;;;;;;;;;;5051043;28;20055;-66
2022/01/31 02:47:21;;;;;;;9.55;4.25;;;;;;;;;;5050853;28;20468;-66
2022/01/31 02:49:52;;;;;;;11.93;4.38;;;;;;;;;;5051226;28;20025;-66
2022/01/31 02:52:18;;;;;;;9.80;4.40;;;;;;;;;;5051352;28;20056;-66
2022/01/31 02:54:44;;;;;;;10.98;4.35;;;;;;;;;;5051108;28;20522;-65
2022/01/31 02:57:10;;;;;;;11.70;4.78;;;;;;;;;;5051182;28;20033;-66
2022/01/31 02:59:36;;;;;;;12.55;4.50;;;;;;;;;;5050532;28;20068;-66
2022/01/31 03:02:02;;;;;;;10.55;4.35;;;;;;;;;;5050919;28;20029;-66
2022/01/31 03:04:28;;;;;;;12.13;4.63;;;;;;;;;;5050802;28;20036;-66
2022/01/31 03:06:55;;;;;;;12.57;4.50;;;;;;;;;;5050671;28;20033;-66
2022/01/31 03:09:21;;;;;;;12.20;4.13;;;;;;;;;;5050870;28;20562;-65
2022/01/31 03:11:46;;;;;;;11.32;4.10;;;;;;;;;;5050690;28;20025;-65
2022/01/31 03:14:15;;;;;;;10.45;4.85;;;;;;;;;;5050632;28;20412;-66
2022/01/31 03:16:42;;;;;;;9.73;4.30;;;;;;;;;;5051061;28;20423;-66
2022/01/31 03:19:08;;;;;;;10.38;4.35;;;;;;;;;;5050539;28;20017;-66
2022/01/31 03:21:34;;;;;;;8.20;4.25;;;;;;;;;;5050588;28;20048;-65
2022/01/31 03:23:59;;;;;;;13.75;4.60;;;;;;;;;;5050368;28;20468;-66
2022/01/31 03:26:25;;;;;;;14.55;4.55;;;;;;;;;;5050485;28;20104;-65
2022/01/31 03:28:52;;;;;;;11.20;4.25;;;;;;;;;;5050458;28;20094;-65
2022/01/31 03:31:18;;;;;;;10.73;4.60;;;;;;;;;;5050328;28;20017;-66
2022/01/31 03:33:54;;;;;;;12.30;4.88;;;;;;;;;;5050269;28;20033;-65
2022/01/31 03:36:20;;;;;;;9.70;3.92;;;;;;;;;;5050490;28;20072;-65
2022/01/31 03:38:46;;;;;;;14.00;4.60;;;;;;;;;;5050035;28;20670;-66
2022/01/31 03:41:14;;;;;;;12.35;4.47;;;;;;;;;;5050050;28;20025;-66
2022/01/31 03:43:40;;;;;;;6.75;4.00;;;;;;;;;;5050048;28;20443;-66
2022/01/31 03:46:06;;;;;;;8.43;4.00;;;;;;;;;;5049966;28;20037;-66
2022/01/31 03:48:33;;;;;;;12.05;4.13;;;;;;;;;;5050057;28;20029;-66
2022/01/31 03:51:00;;;;;;;12.43;4.35;;;;;;;;;;5050573;28;20021;-66
2022/01/31 03:53:26;;;;;;;15.82;4.30;;;;;;;;;;5050219;28;20021;-66
2022/01/31 03:55:52;;;;;;;15.27;4.60;;;;;;;;;;5050049;28;20025;-66
2022/01/31 03:58:18;;;;;;;11.75;4.60;;;;;;;;;;5049794;28;20024;-66
2022/01/31 04:00:44;;;;;;;13.80;4.20;;;;;;;;;;5049765;28;20063;-67
2022/01/31 04:03:09;;;;;;;11.40;4.40;;;;;;;;;;5050164;28;20029;-66
2022/01/31 04:05:37;;;;;;;12.30;4.30;;;;;;;;;;5049987;28;20040;-66
2022/01/31 04:08:03;;;;;;;9.32;4.35;;;;;;;;;;5049754;28;20056;-66
2022/01/31 04:10:28;;;;;;;9.85;4.68;;;;;;;;;;5049988;28;20125;-66
2022/01/31 04:12:54;;;;;;;10.52;4.40;;;;;;;;;;5050109;28;20259;-66
2022/01/31 04:15:19;;;;;;;10.70;4.35;;;;;;;;;;5049886;28;20044;-65
2022/01/31 04:17:45;;;;;;;10.65;4.70;;;;;;;;;;5049814;28;20024;-66
2022/01/31 04:20:11;;;;;;;12.80;5.32;;;;;;;;;;5049512;28;20045;-66
2022/01/31 04:22:44;;;;;;;10.10;4.32;;;;;;;;;;5049810;28;20068;-66
2022/01/31 04:25:27;;;;;;;9.15;4.40;;;;;;;;;;5049863;28;20029;-66
2022/01/31 04:28:01;;;;;;;8.52;4.25;;;;;;;;;;5050234;28;20029;-66
2022/01/31 04:30:26;;;;;;;11.30;4.47;;;;;;;;;;5049660;28;20056;-66
2022/01/31 04:32:51;;;;;;;10.98;4.88;;;;;;;;;;5049896;28;20110;-67
2022/01/31 04:35:17;;;;;;;12.25;4.43;;;;;;;;;;5049928;28;20462;-66
2022/01/31 04:37:42;;;;;;;9.20;4.43;;;;;;;;;;5052279;28;20044;-66
2022/01/31 04:40:13;;;;;;;10.25;5.00;;;;;;;;;;5053489;28;20037;-66
2022/01/31 04:42:39;;;;;;;11.45;4.35;;;;;;;;;;5053680;28;20648;-65
2022/01/31 04:45:05;;;;;;;9.40;4.45;;;;;;;;;;5053540;28;20040;-66
2022/01/31 04:47:31;;;;;;;14.02;4.63;;;;;;;;;;5053943;28;20044;-66
2022/01/31 04:49:56;;;;;;;9.98;4.97;;;;;;;;;;5053291;28;20396;-66
2022/01/31 04:52:22;;;;;;;16.60;6.50;;;;;;;;;;5053661;28;20594;-66
2022/01/31 04:54:47;;;;;;;14.23;5.72;;;;;;;;;;5053501;28;20048;-65
2022/01/31 04:57:13;;;;;;;11.68;6.22;;;;;;;;;;5053377;28;20511;-66
2022/01/31 04:59:42;;;;;;;11.40;5.57;;;;;;;;;;5053019;28;20078;-66
2022/01/31 05:02:07;;;;;;;13.02;5.18;;;;;;;;;;5053267;28;20029;-65
2022/01/31 05:04:32;;;;;;;10.90;4.72;;;;;;;;;;5053249;28;20021;-67
2022/01/31 05:06:58;;;;;;;12.50;5.05;;;;;;;;;;5053109;28;20032;-66
2022/01/31 05:09:23;;;;;;;9.90;4.63;;;;;;;;;;5053089;28;20025;-66
2022/01/31 05:11:49;;;;;;;12.27;5.00;;;;;;;;;;5053162;28;20017;-66
2022/01/31 05:14:16;;;;;;;11.32;4.72;;;;;;;;;;5052934;28;20484;-66
2022/01/31 05:16:41;;;;;;;11.98;4.85;;;;;;;;;;5052912;28;20043;-66
2022/01/31 05:19:07;;;;;;;11.68;5.78;;;;;;;;;;5052776;28;20111;-66
2022/01/31 05:21:32;;;;;;;16.70;6.25;;;;;;;;;;5052832;28;20028;-65
2022/01/31 05:23:58;;;;;;;12.13;5.72;;;;;;;;;;5052897;28;20032;-66
2022/01/31 05:26:23;;;;;;;12.77;5.50;;;;;;;;;;5052797;28;20040;-65
2022/01/31 05:28:49;;;;;;;11.38;5.20;;;;;;;;;;5052625;28;20033;-66
2022/01/31 05:31:14;;;;;;;11.50;5.07;;;;;;;;;;5052550;28;20025;-66
2022/01/31 05:33:40;;;;;;;9.75;5.43;;;;;;;;;;5052680;28;20071;-66
2022/01/31 05:36:06;;;;;;;14.15;6.38;;;;;;;;;;5052445;28;20111;-65
2022/01/31 05:38:35;;;;;;;11.35;5.78;;;;;;;;;;5052189;28;20472;-66
2022/01/31 05:41:05;;;;;;;12.13;4.97;;;;;;;;;;5052730;28;20017;-67
2022/01/31 05:43:30;;;;;;;11.32;4.75;;;;;;;;;;5052642;28;20079;-66
2022/01/31 05:45:56;;;;;;;11.55;4.50;;;;;;;;;;5052402;28;20280;-66
2022/01/31 05:48:21;;;;;;;9.65;4.60;;;;;;;;;;5051749;28;20461;-66
2022/01/31 05:50:47;;;;;;;10.48;4.72;;;;;;;;;;5052267;28;20029;-66
2022/01/31 05:53:13;;;;;;;12.15;4.75;;;;;;;;;;5052213;28;20032;-66
2022/01/31 05:55:40;;;;;;;12.65;5.18;;;;;;;;;;5052192;28;20100;-66
2022/01/31 05:58:05;;;;;;;10.65;4.93;;;;;;;;;;5052090;28;20056;-66
2022/01/31 06:00:31;;;;;;;13.73;5.03;;;;;;;;;;5051901;28;20107;-67
2022/01/31 06:02:58;;;;;;;10.60;5.20;;;;;;;;;;5052136;28;20104;-66
2022/01/31 06:05:25;;;;;;;15.35;4.85;;;;;;;;;;5052200;28;20036;-67
2022/01/31 06:07:50;;;;;;;9.18;4.35;;;;;;;;;;5052045;28;20032;-65
2022/01/31 06:10:16;;;;;;;13.55;4.90;;;;;;;;;;5051864;28;20397;-67
2022/01/31 06:12:42;;;;;;;8.48;4.60;;;;;;;;;;5050547;28;20052;-66
2022/01/31 06:15:08;;;;;;;13.57;4.72;;;;;;;;;;5051751;28;20069;-65
2022/01/31 06:17:34;;;;;;;9.68;4.60;;;;;;;;;;5051680;28;20028;-66
2022/01/31 06:20:00;;;;;;;10.20;4.45;;;;;;;;;;5051747;28;20100;-65
2022/01/31 06:22:25;;;;;;;11.45;4.72;;;;;;;;;;5052096;28;20504;-66
2022/01/31 06:24:50;;;;;;;12.15;4.65;;;;;;;;;;5051649;28;20431;-66
2022/01/31 06:27:16;;;;;;;10.93;4.88;;;;;;;;;;5051651;28;20025;-66
2022/01/31 06:29:42;;;;;;;11.57;4.47;;;;;;;;;;5051672;28;20029;-65
2022/01/31 06:32:08;;;;;;;9.43;4.47;;;;;;;;;;5051418;28;20526;-65
2022/01/31 06:34:34;;;;;;;11.35;5.40;;;;;;;;;;5051537;28;20029;-66
2022/01/31 06:37:02;;;;;;;10.02;4.30;;;;;;;;;;5051108;28;20025;-66
2022/01/31 06:39:28;;;;;;;7.38;4.40;;;;;;;;;;5051072;28;20045;-66
2022/01/31 06:41:54;;;;;;;8.70;4.63;;;;;;;;;;5051425;28;20025;-66
2022/01/31 06:44:19;;;;;;;11.23;4.35;;;;;;;;;;5051208;28;20083;-66
2022/01/31 06:46:45;;;;;;;11.23;4.80;;;;;;;;;;5051308;28;20120;-66
2022/01/31 06:49:10;;;;;;;15.27;5.10;;;;;;;;;;5050930;28;20071;-66
2022/01/31 06:51:36;;;;;;;10.48;4.63;;;;;;;;;;5051163;28;20094;-66
2022/01/31 06:54:02;;;;;;;16.00;6.03;;;;;;;;;;5051050;28;20021;-66
2022/01/31 06:56:34;;;;;;;10.60;5.45;;;;;;;;;;5050933;28;20029;-67
2022/01/31 06:59:01;;;;;;;12.35;5.25;;;;;;;;;;5050762;28;20025;-66
2022/01/31 07:01:27;;;;;;;12.25;5.57;;;;;;;;;;5050786;28;20439;-65
2022/01/31 07:03:53;;;;;;;10.52;4.85;;;;;;;;;;5050970;28;20029;-66
2022/01/31 07:06:20;;;;;;;9.23;5.18;;;;;;;;;;5050856;28;20047;-65
2022/01/31 07:08:46;;;;;;;9.27;5.00;;;;;;;;;;5050950;28;20040;-65
2022/01/31 07:11:16;;;;;;;16.67;6.05;;;;;;;;;;5050906;28;20055;-65
2022/01/31 07:13:43;;;;;;;11.63;5.75;;;;;;;;;;5050474;28;20021;-65
2022/01/31 07:16:09;;;;;;;9.45;5.50;;;;;;;;;;5050594;28;20115;-65
2022/01/31 07:18:36;;;;;;;9.85;5.00;;;;;;;;;;5050611;28;20151;-66
2022/01/31 07:21:03;;;;;;;10.48;4.80;;;;;;;;;;5050491;28;20472;-66
2022/01/31 07:23:39;;;;;;;13.98;5.75;;;;;;;;;;5050658;28;20496;-66
2022/01/31 07:26:05;;;;;;;17.98;6.93;;;;;;;;;;5050289;28;20029;-65
2022/01/31 07:28:30;;;;;;;17.52;6.72;;;;;;;;;;5050553;28;20025;-66
2022/01/31 07:30:57;;;;;;;13.25;5.90;;;;;;;;;;5049922;28;20025;-66
2022/01/31 07:33:23;;;;;;;12.00;5.93;;;;;;;;;;5050171;28;20049;-64
2022/01/31 07:35:50;;;;;;;11.10;6.10;;;;;;;;;;5050290;28;20064;-68
2022/01/31 07:38:16;;;;;;;16.58;6.10;;;;;;;;;;5050325;28;20024;-64
2022/01/31 07:40:42;;;;;;;11.30;5.55;;;;;;;;;;5050001;28;20106;-63
2022/01/31 07:43:07;;;;;;;11.70;5.70;;;;;;;;;;5050506;28;20468;-63
2022/01/31 07:45:33;;;;;;;14.15;6.22;;;;;;;;;;5050028;28;20017;-64
2022/01/31 07:47:59;;;;;;;13.30;6.13;;;;;;;;;;5049825;28;20043;-64
2022/01/31 07:50:25;;;;;;;17.50;6.30;;;;;;;;;;5049909;28;20025;-64
2022/01/31 07:52:50;;;;;;;15.43;6.47;;;;;;;;;;5050100;28;20175;-64
2022/01/31 07:55:16;;;;;;;17.70;6.70;;;;;;;;;;5050642;28;20156;-64
2022/01/31 07:57:43;;;;;;;14.40;6.47;;;;;;;;;;5050392;28;20497;-63
2022/01/31 08:00:10;;;;;;;16.05;6.53;;;;;;;;;;5049572;28;20024;-65
2022/01/31 08:02:35;;;;;;;18.70;6.60;;;;;;;;;;5050112;28;20344;-64
2022/01/31 08:05:01;;;;;;;20.08;6.72;;;;;;;;;;5049946;28;20017;-65
2022/01/31 08:07:26;;;;;;;16.92;6.20;;;;;;;;;;5049800;28;20600;-63
2022/01/31 08:09:51;;;;;;;13.15;6.40;;;;;;;;;;5049739;28;20078;-63
2022/01/31 08:12:17;;;;;;;13.40;5.45;;;;;;;;;;5049163;28;20037;-63
2022/01/31 08:14:44;;;;;;;14.48;6.13;;;;;;;;;;5049820;28;20492;-64
2022/01/31 08:17:09;;;;;;;15.43;6.95;;;;;;;;;;5050274;28;20040;-64
2022/01/31 08:19:35;;;;;;;11.20;5.95;;;;;;;;;;5049852;28;20025;-64
2022/01/31 08:22:01;;;;;;;12.95;6.50;;;;;;;;;;5049761;28;20032;-64
2022/01/31 08:24:26;;;;;;;11.88;6.20;;;;;;;;;;5049578;28;20086;-63
2022/01/31 08:26:52;;;;;;;13.18;6.20;;;;;;;;;;5049702;28;20491;-63
2022/01/31 08:29:26;;;;;;;14.52;6.57;;;;;;;;;;5049671;28;20158;-64
2022/01/31 08:31:53;;;;;;;12.35;6.10;;;;;;;;;;5049588;28;20048;-64
2022/01/31 08:35:47;;;;;;;12.10;6.10;;;;;;;;;;5049766;28;20162;-64
2022/01/31 08:37:04;;;;;;;13.70;5.78;;;;;;;;;;5049816;28;20117;-64
2022/01/31 08:39:30;;;;;;;10.65;4.82;;;;;;;;;;5049401;28;20087;-65
2022/01/31 08:41:55;;;;;;;12.85;5.10;;;;;;;;;;5049339;28;20103;-64
2022/01/31 08:44:22;;;;;;;14.30;5.45;;;;;;;;;;5049629;28;20188;-64
2022/01/31 08:46:48;;;;;;;11.30;5.30;;;;;;;;;;5049678;28;20048;-64
2022/01/31 08:49:15;;;;;;;10.15;5.32;;;;;;;;;;5049475;28;20477;-65
2022/01/31 08:51:42;;;;;;;12.18;5.43;;;;;;;;;;5049389;28;20384;-63
2022/01/31 08:54:09;;;;;;;11.05;5.60;;;;;;;;;;5049654;28;20025;-64
2022/01/31 08:56:40;;;;;;;9.45;4.75;;;;;;;;;;5049488;28;20086;-65
2022/01/31 08:59:12;;;;;;;13.02;5.57;;;;;;;;;;5049425;28;20078;-64
2022/01/31 09:01:37;;;;;;;11.43;5.18;;;;;;;;;;5049116;28;20025;-65
2022/01/31 09:04:05;;;;;;;13.90;4.70;;;;;;;;;;5049350;28;20040;-65
2022/01/31 09:06:32;;;;;;;8.77;4.15;;;;;;;;;;5049492;28;20166;-64
2022/01/31 09:09:00;;;;;;;11.27;4.47;;;;;;;;;;5049409;28;20040;-65
2022/01/31 09:11:26;;;;;;;9.90;3.63;;;;;;;;;;5049336;28;20139;-64
2022/01/31 09:13:52;;;;;;;14.70;4.60;;;;;;;;;;5049356;28;20394;-64
2022/01/31 09:16:17;;;;;;;9.95;3.80;;;;;;;;;;5049477;28;20017;-64
2022/01/31 09:18:44;;;;;;;9.52;3.72;;;;;;;;;;5049218;28;20392;-64
2022/01/31 09:21:11;;;;;;;12.82;3.58;;;;;;;;;;5048917;28;20043;-64
2022/01/31 09:23:37;;;;;;;13.05;4.25;;;;;;;;;;5051242;28;20029;-64
2022/01/31 09:26:04;;;;;;;8.23;3.80;;;;;;;;;;5052746;28;20032;-64
2022/01/31 09:28:30;;;;;;;9.55;3.90;;;;;;;;;;5052713;28;20033;-64
2022/01/31 09:30:56;;;;;;;13.20;3.72;;;;;;;;;;5052446;28;20029;-63
2022/01/31 09:33:22;;;;;;;10.57;3.33;;;;;;;;;;5052666;28;20037;-65
2022/01/31 09:35:48;;;;;;;8.23;3.42;;;;;;;;;;5052966;28;20036;-64
2022/01/31 09:38:16;;;;;;;9.63;3.70;;;;;;;;;;5052276;28;20447;-64
2022/01/31 09:40:42;;;;;;;8.85;3.63;;;;;;;;;;5052041;28;20056;-64
2022/01/31 09:46:46;;;;;;;9.10;3.70;;;;;;;;;;5052445;28;20036;-64
2022/01/31 09:48:51;;;;;;;12.05;5.07;;;;;;;;;;5050097;28;20084;-63
2022/01/31 09:51:22;;;;;;;13.30;4.90;;;;;;;;;;5052283;28;20033;-65
2022/01/31 09:53:50;;;;;;;13.63;4.47;;;;;;;;;;5052296;28;20025;-64
2022/01/31 09:56:20;;;;;;;9.88;3.88;;;;;;;;;;5052282;28;20500;-63
2022/01/31 09:58:46;;;;;;;9.07;3.50;;;;;;;;;;5052152;28;20115;-64
2022/01/31 10:01:14;;;;;;;7.35;3.00;;;;;;;;;;5051740;28;20151;-65
2022/01/31 10:03:49;;;;;;;12.82;3.50;;;;;;;;;;5052011;28;20512;-64
2022/01/31 10:06:43;;;;;;;9.25;4.15;;;;;;;;;;5052130;28;20330;-63
2022/01/31 10:09:20;;;;;;;15.13;5.07;;;;;;;;;;5050893;28;20045;-63
2022/01/31 10:12:10;;;;;;;10.82;5.50;;;;;;;;;;5051946;28;20025;-64
2022/01/31 10:17:37;;;;;;;10.80;5.10;;;;;;;;;;5051867;28;20035;-64
2022/01/31 10:20:17;;;;;;;10.60;5.45;;;;;;;;;;5052164;28;20354;-63
2022/01/31 10:22:42;;;;;;;10.90;5.15;;;;;;;;;;5051568;28;20476;-64
2022/01/31 10:25:11;;;;;;;12.95;4.93;;;;;;;;;;5051623;28;20028;-64
2022/01/31 10:27:38;;;;;;;13.02;5.78;;;;;;;;;;5051886;28;20477;-64
2022/01/31 10:30:10;;;;;;;14.57;6.28;;;;;;;;;;5051447;28;20025;-63
2022/01/31 10:32:39;;;;;;;12.73;5.47;;;;;;;;;;5051384;28;20086;-64
2022/01/31 10:35:08;;;;;;;12.40;4.95;;;;;;;;;;5050908;28;20178;-63
2022/01/31 10:37:36;;;;;;;21.80;7.68;;;;;;;;;;5051231;28;20096;-64
2022/01/31 10:54:03;;;;;;;16.35;6.70;;;;;;;;;;5051215;28;20036;-64
2022/01/31 10:56:41;;;;;;;15.40;7.32;;;;;;;;;;5051040;28;20052;-64
2022/01/31 10:59:17;;;;;;;15.70;6.35;;;;;;;;;;5050910;28;20021;-64
2022/01/31 11:01:52;;;;;;;17.88;6.60;;;;;;;;;;5049521;28;20021;-64
2022/01/31 11:04:17;;;;;;;14.23;5.60;;;;;;;;;;5051273;28;20096;-65
2022/01/31 11:06:45;;;;;;;12.35;5.95;;;;;;;;;;5050946;28;20100;-64
2022/01/31 11:09:17;;;;;;;11.68;5.35;;;;;;;;;;5050832;28;20029;-65
2022/01/31 11:11:50;;;;;;;12.20;5.30;;;;;;;;;;5050760;28;20025;-64
2022/01/31 11:14:16;;;;;;;14.75;5.57;;;;;;;;;;5050611;28;20200;-64
2022/01/31 11:16:45;;;;;;;9.55;4.75;;;;;;;;;;5050498;28;20052;-64
2022/01/31 11:19:12;;;;;;;11.15;5.43;;;;;;;;;;5050564;28;20040;-64
2022/01/31 11:21:44;;;;;;;33.75;6.03;;;;;;;;;;5050273;28;20029;-64
2022/01/31 11:24:19;;;;;;;14.10;4.65;;;;;;;;;;5050682;28;20025;-64
2022/01/31 11:26:56;;;;;;;10.70;3.83;;;;;;;;;;5050588;28;20426;-64
2022/01/31 11:29:22;;;;;;;10.85;4.85;;;;;;;;;;5050477;28;20259;-64
2022/01/31 11:31:48;;;;;;;9.43;3.90;;;;;;;;;;5050049;28;20021;-64
2022/01/31 11:34:14;;;;;;;9.80;3.58;;;;;;;;;;5050261;28;20036;-64
2022/01/31 11:36:42;;;;;;;7.00;3.05;;;;;;;;;;5050293;28;20028;-64
2022/01/31 11:39:13;;;;;;;15.13;4.45;;;;;;;;;;5049921;28;20079;-64
2022/01/31 11:41:45;;;;;;;13.95;4.78;;;;;;;;;;5050085;28;20055;-65
2022/01/31 11:44:27;;;;;;;13.00;5.20;;;;;;;;;;5050140;28;20107;-64
2022/01/31 11:46:55;;;;;;;12.00;5.43;;;;;;;;;;5049562;28;20070;-64
2022/01/31 11:49:21;;;;;;;15.30;5.53;;;;;;;;;;5050045;28;20025;-64
2022/01/31 11:52:04;;;;;;;10.93;4.90;;;;;;;;;;5050118;28;20380;-64
2022/01/31 11:54:30;;;;;;;12.02;4.82;;;;;;;;;;5050228;28;20584;-64
2022/01/31 11:56:56;;;;;;;14.57;5.13;;;;;;;;;;5049913;28;20131;-64
2022/01/31 11:59:24;;;;;;;10.13;4.78;;;;;;;;;;5049948;28;20017;-64
2022/01/31 12:01:51;;;;;;;22.48;10.35;;;;;;;;;;5049926;28;20021;-64
2022/01/31 12:04:21;;;;;;;13.95;6.57;;;;;;;;;;5050236;28;20025;-64
2022/01/31 12:06:47;;;;;;;13.18;5.88;;;;;;;;;;5050080;28;20033;-65
2022/01/31 12:09:17;;;;;;;13.55;5.95;;;;;;;;;;5049819;28;20029;-63
2022/01/31 12:12:08;;;;;;;12.60;4.68;;;;;;;;;;5049566;28;20029;-64
2022/01/31 12:14:48;;;;;;;10.55;4.53;;;;;;;;;;5049668;28;20029;-63
2022/01/31 12:18:03;;;;;;;12.48;4.13;;;;;;;;;;5050022;28;20017;-64
2022/01/31 12:23:37;;;;;;;16.25;4.78;;;;;;;;;;5044493;28;20063;-64
2022/01/31 12:26:24;;;;;;;17.45;5.05;;;;;;;;;;5049514;28;20110;-64
2022/01/31 12:28:57;;;;;;;11.55;4.82;;;;;;;;;;5049607;28;20110;-64
2022/01/31 12:31:29;;;;;;;11.40;4.30;;;;;;;;;;5049315;28;20392;-65
2022/01/31 12:33:56;;;;;;;11.30;4.60;;;;;;;;;;5049707;28;20025;-65
2022/01/31 12:36:36;;;;;;;10.90;4.30;;;;;;;;;;5049626;28;20168;-64
2022/01/31 12:39:31;;;;;;;8.75;4.22;;;;;;;;;;5049560;28;20045;-63
2022/01/31 12:42:03;;;;;;;9.27;4.07;;;;;;;;;;5049154;28;20497;-64
2022/01/31 12:44:29;;;;;;;8.60;4.00;;;;;;;;;;5049779;28;20025;-64
2022/01/31 12:47:07;;;;;;;12.43;3.90;;;;;;;;;;5049371;28;20094;-64
2022/01/31 12:49:33;;;;;;;9.60;3.92;;;;;;;;;;5049156;28;20033;-65
2022/01/31 12:52:05;;;;;;;6.47;3.35;;;;;;;;;;5049279;28;20104;-64
2022/01/31 12:54:31;;;;;;;9.13;4.00;;;;;;;;;;5049557;28;20025;-65
2022/01/31 12:57:06;;;;;;;11.07;4.18;;;;;;;;;;5049403;28;20025;-64
2022/01/31 12:59:32;;;;;;;8.07;4.05;;;;;;;;;;5053554;28;20033;-65
2022/01/31 13:01:58;;;;;;;10.55;3.67;;;;;;;;;;5053237;28;20116;-65
2022/01/31 13:04:27;;;;;;;10.10;3.45;;;;;;;;;;5051846;28;20355;-65
2022/01/31 13:07:04;;;;;;;9.93;3.80;;;;;;;;;;5053018;28;20377;-65
2022/01/31 13:09:35;;;;;;;9.13;3.50;;;;;;;;;;5053037;28;20039;-64
2022/01/31 13:12:05;;;;;;;7.30;3.50;;;;;;;;;;5052825;28;20021;-64
2022/01/31 13:14:37;;;;;;;12.70;5.38;;;;;;;;;;5052899;28;20021;-64
2022/01/31 13:17:16;;;;;;;7.88;3.78;;;;;;;;;;5053041;28;20032;-64
2022/01/31 13:19:45;;;;;;;20.00;8.77;;;;;;;;;;5053219;28;20017;-64
2022/01/31 13:22:17;;;;;;;11.40;4.90;;;;;;;;;;5052694;28;20025;-64
2022/01/31 13:24:49;;;;;;;20.83;5.32;;;;;;;;;;5051518;28;20036;-63
2022/01/31 13:27:19;;;;;;;14.00;5.90;;;;;;;;;;5052629;28;20397;-64
2022/01/31 13:29:50;;;;;;;11.63;5.00;;;;;;;;;;5052528;28;20032;-64
2022/01/31 13:32:31;;;;;;;11.15;4.50;;;;;;;;;;5052315;28;20071;-64
2022/01/31 13:34:59;;;;;;;8.02;3.92;;;;;;;;;;5052561;28;20086;-64
2022/01/31 13:37:34;;;;;;;9.45;3.90;;;;;;;;;;5052860;28;20029;-64
2022/01/31 13:40:07;;;;;;;8.70;3.65;;;;;;;;;;5052681;28;20044;-64
2022/01/31 13:42:38;;;;;;;11.15;4.10;;;;;;;;;;5052404;28;20112;-64
2022/01/31 13:45:16;;;;;;;9.00;3.92;;;;;;;;;;5052319;28;20065;-62
2022/01/31 13:50:22;;;;;;;8.60;3.47;;;;;;;;;;5052240;28;20033;-64
2022/01/31 13:52:57;;;;;;;7.78;3.55;;;;;;;;;;5052186;28;20079;-64
2022/01/31 13:55:24;;;;;;;8.02;3.35;;;;;;;;;;5052500;28;20473;-64
2022/01/31 13:57:50;;;;;;;11.50;3.67;;;;;;;;;;5052190;28;20109;-65
2022/01/31 14:00:16;;;;;;;8.07;3.60;;;;;;;;;;5052041;28;20033;-64
2022/01/31 14:03:11;;;;;;;8.40;3.40;;;;;;;;;;5051677;28;20543;-64
2022/01/31 14:05:41;;;;;;;8.52;3.45;;;;;;;;;;5051885;28;20109;-65
2022/01/31 14:08:13;;;;;;;8.15;3.65;;;;;;;;;;5051674;28;20029;-64
2022/01/31 14:10:39;;;;;;;13.85;3.60;;;;;;;;;;5050940;28;20023;-64
2022/01/31 14:13:09;;;;;;;9.57;3.20;;;;;;;;;;5051725;28;20105;-64
2022/01/31 14:15:54;;;;;;;8.73;3.50;;;;;;;;;;5052037;28;20025;-64
2022/01/31 14:18:20;;;;;;;7.80;3.60;;;;;;;;;;5051921;28;20067;-63
2022/01/31 14:20:51;;;;;;;10.45;3.80;;;;;;;;;;5051750;28;20056;-64
2022/01/31 14:23:17;;;;;;;8.48;3.30;;;;;;;;;;5051666;28;20028;-64
2022/01/31 14:25:46;;;;;;;11.27;3.78;;;;;;;;;;5051506;28;20044;-63
2022/01/31 14:28:13;;;;;;;8.05;3.40;;;;;;;;;;5051560;28;20484;-64
2022/01/31 14:30:52;;;;;;;6.97;3.35;;;;;;;;;;5051475;28;20029;-64
2022/01/31 14:33:23;;;;;;;10.40;3.90;;;;;;;;;;5051471;28;20029;-64
2022/01/31 14:35:50;;;;;;;10.77;3.65;;;;;;;;;;5051613;28;20029;-63
2022/01/31 14:38:23;;;;;;;7.20;3.67;;;;;;;;;;5051579;28;20208;-63
2022/01/31 14:49:21;;;;;;;13.13;5.25;;;;;;;;;;5051420;28;20558;-64
2022/01/31 14:51:48;;;;;;;12.15;4.70;;;;;;;;;;5051138;28;20377;-64
2022/01/31 14:54:15;;;;;;;11.27;4.72;;;;;;;;;;5051341;28;20025;-64
2022/01/31 14:56:42;;;;;;;9.90;3.90;;;;;;;;;;5051326;28;20025;-64
2022/01/31 14:59:08;;;;;;;13.48;4.35;;;;;;;;;;5051032;28;20087;-65
2022/01/31 15:01:35;;;;;;;12.80;3.90;;;;;;;;;;5050912;28;20147;-64
2022/01/31 15:04:00;;;;;;;10.07;4.45;;;;;;;;;;5050454;28;20113;-65
2022/01/31 15:06:26;;;;;;;17.20;4.03;;;;;;;;;;5050768;28;20100;-64
2022/01/31 15:08:52;;;;;;;10.68;4.00;;;;;;;;;;5050849;28;20104;-65
2022/01/31 15:11:17;;;;;;;11.80;4.20;;;;;;;;;;5050902;28;20020;-64
2022/01/31 15:13:46;;;;;;;12.70;6.22;;;;;;;;;;5050740;28;20017;-64